createdAt,value
2017-01-10T00:00:11.480Z,5.56
2017-01-10T00:00:52.035Z,5.6
2017-01-10T00:01:32.559Z,5.49
2017-01-10T00:02:13.060Z,5.57
2017-01-10T00:02:53.610Z,5.6
2017-01-10T00:03:34.116Z,5.61
2017-01-10T00:04:14.662Z,5.53
2017-01-10T00:04:55.164Z,5.45
2017-01-10T00:05:35.689Z,5.49
2017-01-10T00:06:16.248Z,5.51
2017-01-10T00:06:56.773Z,5.56
2017-01-10T00:07:37.312Z,5.46
2017-01-10T00:08:17.822Z,5.48
2017-01-10T00:08:58.342Z,5.57
2017-01-10T00:09:38.931Z,5.45
2017-01-10T00:10:19.485Z,5.54
2017-01-10T00:10:59.990Z,5.53
2017-01-10T00:11:40.616Z,5.38
2017-01-10T00:12:21.170Z,5.35
2017-01-10T00:13:01.919Z,5.45
2017-01-10T00:13:42.651Z,5.49
2017-01-10T00:14:23.196Z,5.45
2017-01-10T00:15:03.744Z,5.45
2017-01-10T00:15:44.224Z,5.48
2017-01-10T00:16:24.821Z,5.57
2017-01-10T00:17:05.303Z,5.57
2017-01-10T00:17:45.826Z,5.51
2017-01-10T00:18:26.340Z,5.49
2017-01-10T00:19:07.139Z,5.46
2017-01-10T00:19:47.662Z,5.46
2017-01-10T00:20:28.145Z,5.46
2017-01-10T00:21:08.585Z,5.54
2017-01-10T00:21:49.103Z,5.42
2017-01-10T00:22:29.692Z,5.56
2017-01-10T00:23:10.194Z,5.46
2017-01-10T00:23:50.722Z,5.6
2017-01-10T00:24:31.295Z,5.51
2017-01-10T00:25:11.879Z,5.49
2017-01-10T00:25:52.544Z,5.57
2017-01-10T00:26:33.428Z,5.58
2017-01-10T00:27:13.943Z,5.58
2017-01-10T00:27:54.446Z,5.58
2017-01-10T00:28:34.966Z,5.6
2017-01-10T00:29:15.543Z,5.58
2017-01-10T00:29:56.051Z,5.57
2017-01-10T00:30:36.546Z,5.57
2017-01-10T00:31:17.215Z,5.54
2017-01-10T00:31:57.680Z,5.57
2017-01-10T00:32:38.274Z,5.57
2017-01-10T00:33:18.755Z,5.49
2017-01-10T00:33:59.278Z,5.6
2017-01-10T00:34:39.806Z,5.57
2017-01-10T00:35:20.342Z,5.42
2017-01-10T00:36:00.920Z,5.57
2017-01-10T00:36:41.424Z,5.57
2017-01-10T00:37:21.932Z,5.51
2017-01-10T00:38:02.491Z,5.56
2017-01-10T00:38:43.390Z,5.57
2017-01-10T00:39:23.919Z,5.57
2017-01-10T00:40:04.432Z,5.53
2017-01-10T00:40:44.955Z,5.63
2017-01-10T00:41:25.521Z,5.6
2017-01-10T00:42:06.067Z,5.54
2017-01-10T00:42:46.701Z,5.54
2017-01-10T00:43:27.153Z,5.51
2017-01-10T00:44:07.697Z,5.49
2017-01-10T00:44:48.423Z,5.49
2017-01-10T00:45:29.670Z,5.53
2017-01-10T00:46:10.212Z,5.51
2017-01-10T00:46:50.771Z,5.49
2017-01-10T00:47:31.315Z,5.45
2017-01-10T00:48:11.895Z,5.46
2017-01-10T00:48:52.478Z,5.49
2017-01-10T00:49:33.279Z,5.49
2017-01-10T00:50:13.795Z,5.48
2017-01-10T00:50:54.414Z,5.49
2017-01-10T00:51:34.905Z,5.58
2017-01-10T00:52:15.404Z,5.45
2017-01-10T00:52:55.953Z,5.57
2017-01-10T00:53:36.522Z,5.39
2017-01-10T00:54:17.104Z,5.39
2017-01-10T00:54:57.588Z,5.42
2017-01-10T00:55:38.172Z,5.39
2017-01-10T00:56:18.722Z,5.39
2017-01-10T00:56:59.429Z,5.49
2017-01-10T00:57:39.951Z,5.57
2017-01-10T00:58:20.487Z,5.49
2017-01-10T00:59:01.009Z,5.49
2017-01-10T00:59:41.617Z,5.54
2017-01-10T01:00:22.082Z,5.53
2017-01-10T01:01:02.633Z,5.61
2017-01-10T01:01:43.242Z,5.58
2017-01-10T01:02:23.878Z,5.57
2017-01-10T01:03:04.432Z,5.43
2017-01-10T01:03:44.934Z,5.49
2017-01-10T01:04:25.506Z,5.48
2017-01-10T01:05:06.005Z,5.54
2017-01-10T01:05:46.568Z,5.45
2017-01-10T01:06:27.100Z,5.4
2017-01-10T01:07:07.669Z,5.45
2017-01-10T01:07:48.164Z,5.49
2017-01-10T01:08:29.016Z,5.49
2017-01-10T01:09:09.677Z,5.46
2017-01-10T01:09:50.399Z,5.53
2017-01-10T01:10:30.959Z,5.49
2017-01-10T01:11:11.496Z,5.51
2017-01-10T01:11:52.020Z,5.56
2017-01-10T01:12:32.577Z,5.43
2017-01-10T01:13:13.132Z,5.42
2017-01-10T01:13:53.687Z,5.36
2017-01-10T01:14:34.334Z,5.39
2017-01-10T01:15:15.194Z,5.45
2017-01-10T01:15:55.852Z,5.45
2017-01-10T01:16:36.394Z,5.35
2017-01-10T01:17:16.921Z,5.36
2017-01-10T01:17:57.485Z,5.35
2017-01-10T01:18:38.015Z,5.42
2017-01-10T01:19:18.545Z,5.42
2017-01-10T01:19:59.081Z,5.48
2017-01-10T01:20:39.800Z,5.46
2017-01-10T01:21:20.349Z,5.4
2017-01-10T01:22:01.053Z,5.39
2017-01-10T01:22:41.727Z,5.42
2017-01-10T01:23:22.274Z,5.42
2017-01-10T01:24:02.809Z,5.51
2017-01-10T01:24:43.384Z,5.46
2017-01-10T01:25:23.938Z,5.53
2017-01-10T01:26:04.458Z,5.58
2017-01-10T01:26:45.037Z,5.6
2017-01-10T01:27:25.890Z,5.65
2017-01-10T01:28:06.636Z,5.64
2017-01-10T01:28:47.164Z,5.56
2017-01-10T01:29:27.745Z,5.63
2017-01-10T01:30:08.249Z,5.58
2017-01-10T01:30:48.785Z,5.6
2017-01-10T01:31:29.296Z,5.64
2017-01-10T01:32:09.871Z,5.6
2017-01-10T01:32:50.417Z,5.61
2017-01-10T01:33:30.941Z,5.51
2017-01-10T01:34:11.503Z,5.48
2017-01-10T01:34:52.668Z,5.46
2017-01-10T01:35:33.534Z,5.48
2017-01-10T01:36:14.304Z,5.43
2017-01-10T01:36:54.837Z,5.56
2017-01-10T01:37:35.349Z,5.57
2017-01-10T01:38:15.874Z,5.64
2017-01-10T01:38:56.429Z,5.56
2017-01-10T01:39:37.013Z,5.57
2017-01-10T01:40:17.783Z,5.6
2017-01-10T01:40:58.335Z,5.6
2017-01-10T01:41:38.873Z,5.53
2017-01-10T01:42:19.354Z,5.51
2017-01-10T01:42:59.892Z,5.61
2017-01-10T01:43:40.442Z,5.74
2017-01-10T01:44:21.063Z,5.68
2017-01-10T01:45:01.733Z,5.58
2017-01-10T01:45:42.490Z,5.6
2017-01-10T01:46:22.999Z,5.6
2017-01-10T01:47:03.542Z,5.57
2017-01-10T01:47:44.045Z,5.61
2017-01-10T01:48:24.608Z,5.54
2017-01-10T01:49:05.095Z,5.64
2017-01-10T01:49:45.647Z,5.64
2017-01-10T01:50:26.119Z,5.61
2017-01-10T01:51:06.649Z,5.61
2017-01-10T01:51:47.381Z,5.63
2017-01-10T01:52:28.141Z,5.61
2017-01-10T01:53:08.631Z,5.67
2017-01-10T01:53:49.224Z,5.71
2017-01-10T01:54:29.757Z,5.68
2017-01-10T01:55:10.269Z,5.64
2017-01-10T01:55:50.808Z,5.75
2017-01-10T01:56:31.341Z,5.71
2017-01-10T01:57:12.024Z,5.61
2017-01-10T01:57:52.487Z,5.64
2017-01-10T01:58:33.056Z,5.68
2017-01-10T01:59:13.503Z,5.57
2017-01-10T01:59:54.080Z,5.65
2017-01-10T02:00:34.591Z,5.61
2017-01-10T02:01:15.133Z,5.61
2017-01-10T02:01:55.658Z,5.63
2017-01-10T02:02:39.073Z,5.68
2017-01-10T02:03:19.567Z,5.64
2017-01-10T02:04:00.088Z,5.64
2017-01-10T02:04:40.821Z,5.67
2017-01-10T02:05:21.314Z,5.75
2017-01-10T02:06:01.995Z,5.68
2017-01-10T02:06:42.658Z,5.71
2017-01-10T02:07:23.375Z,5.65
2017-01-10T02:08:04.111Z,5.67
2017-01-10T02:08:44.608Z,5.65
2017-01-10T02:09:25.141Z,5.65
2017-01-10T02:10:05.650Z,5.67
2017-01-10T02:10:46.175Z,5.54
2017-01-10T02:11:26.751Z,5.65
2017-01-10T02:12:07.281Z,5.57
2017-01-10T02:12:47.858Z,5.67
2017-01-10T02:13:28.516Z,5.67
2017-01-10T02:14:09.353Z,5.61
2017-01-10T02:14:50.109Z,5.56
2017-01-10T02:15:30.685Z,5.67
2017-01-10T02:16:14.821Z,5.63
2017-01-10T02:16:55.239Z,5.74
2017-01-10T02:17:35.808Z,5.68
2017-01-10T02:18:16.363Z,5.75
2017-01-10T02:18:56.955Z,5.74
2017-01-10T02:19:37.450Z,5.85
2017-01-10T02:20:17.991Z,5.74
2017-01-10T02:20:58.567Z,5.76
2017-01-10T02:21:39.087Z,5.78
2017-01-10T02:22:19.883Z,5.72
2017-01-10T02:23:00.698Z,5.82
2017-01-10T02:23:41.591Z,5.83
2017-01-10T02:24:22.418Z,5.81
2017-01-10T02:25:03.021Z,5.71
2017-01-10T02:25:43.535Z,5.76
2017-01-10T02:26:24.079Z,5.72
2017-01-10T02:27:04.582Z,5.81
2017-01-10T02:27:45.087Z,5.83
2017-01-10T02:28:25.594Z,5.86
2017-01-10T02:29:06.159Z,5.83
2017-01-10T02:29:46.731Z,5.83
2017-01-10T02:30:27.246Z,5.86
2017-01-10T02:31:07.787Z,5.72
2017-01-10T02:31:48.304Z,5.78
2017-01-10T02:32:28.822Z,5.85
2017-01-10T02:33:09.364Z,5.81
2017-01-10T02:33:49.943Z,5.89
2017-01-10T02:34:30.468Z,5.83
2017-01-10T02:35:11.014Z,5.91
2017-01-10T02:35:51.574Z,5.86
2017-01-10T02:36:32.061Z,5.81
2017-01-10T02:37:12.569Z,5.82
2017-01-10T02:37:53.131Z,5.82
2017-01-10T02:38:33.632Z,5.71
2017-01-10T02:39:14.224Z,5.68
2017-01-10T02:39:54.739Z,5.79
2017-01-10T02:40:35.288Z,5.91
2017-01-10T02:41:15.865Z,5.78
2017-01-10T02:41:56.373Z,5.79
2017-01-10T02:42:36.952Z,5.74
2017-01-10T02:43:17.418Z,5.79
2017-01-10T02:43:57.969Z,5.67
2017-01-10T02:44:38.508Z,5.65
2017-01-10T02:45:19.034Z,5.82
2017-01-10T02:45:59.564Z,5.67
2017-01-10T02:46:40.143Z,5.72
2017-01-10T02:47:20.667Z,5.79
2017-01-10T02:48:01.223Z,5.67
2017-01-10T02:48:41.767Z,5.67
2017-01-10T02:49:22.301Z,5.57
2017-01-10T02:50:02.855Z,5.67
2017-01-10T02:50:43.400Z,5.72
2017-01-10T02:51:23.983Z,5.81
2017-01-10T02:52:04.784Z,5.67
2017-01-10T02:52:45.223Z,5.71
2017-01-10T02:53:25.746Z,5.72
2017-01-10T02:54:06.286Z,5.79
2017-01-10T02:54:46.891Z,5.68
2017-01-10T02:55:27.425Z,5.76
2017-01-10T02:56:07.909Z,5.83
2017-01-10T02:56:48.445Z,5.82
2017-01-10T02:57:28.956Z,5.81
2017-01-10T02:58:09.667Z,5.9
2017-01-10T02:58:50.227Z,5.85
2017-01-10T02:59:30.897Z,5.81
2017-01-10T03:00:11.456Z,5.78
2017-01-10T03:00:52.008Z,5.74
2017-01-10T03:01:32.600Z,5.78
2017-01-10T03:02:13.121Z,5.86
2017-01-10T03:02:53.675Z,5.89
2017-01-10T03:03:34.178Z,5.86
2017-01-10T03:04:14.759Z,5.83
2017-01-10T03:04:55.386Z,5.81
2017-01-10T03:05:35.848Z,5.71
2017-01-10T03:06:16.359Z,5.81
2017-01-10T03:06:56.914Z,5.72
2017-01-10T03:07:37.420Z,5.75
2017-01-10T03:08:17.990Z,5.78
2017-01-10T03:08:58.532Z,5.79
2017-01-10T03:09:39.062Z,5.86
2017-01-10T03:10:19.641Z,5.82
2017-01-10T03:11:00.194Z,5.74
2017-01-10T03:11:40.758Z,5.79
2017-01-10T03:12:21.282Z,5.81
2017-01-10T03:13:01.815Z,5.83
2017-01-10T03:13:42.374Z,5.85
2017-01-10T03:14:22.919Z,5.79
2017-01-10T03:15:03.476Z,5.89
2017-01-10T03:15:43.950Z,5.79
2017-01-10T03:16:24.656Z,5.76
2017-01-10T03:17:05.259Z,5.78
2017-01-10T03:17:45.758Z,5.89
2017-01-10T03:18:26.305Z,5.74
2017-01-10T03:19:06.817Z,5.78
2017-01-10T03:19:47.344Z,5.75
2017-01-10T03:20:27.916Z,5.85
2017-01-10T03:21:08.443Z,5.83
2017-01-10T03:21:48.987Z,5.76
2017-01-10T03:22:29.548Z,5.85
2017-01-10T03:23:10.197Z,5.82
2017-01-10T03:23:50.717Z,5.72
2017-01-10T03:24:31.238Z,5.67
2017-01-10T03:25:11.791Z,5.72
2017-01-10T03:25:52.304Z,5.67
2017-01-10T03:26:32.832Z,5.68
2017-01-10T03:27:13.373Z,5.68
2017-01-10T03:27:53.917Z,5.68
2017-01-10T03:28:34.571Z,5.75
2017-01-10T03:29:15.090Z,5.72
2017-01-10T03:29:55.631Z,5.76
2017-01-10T03:30:36.124Z,5.67
2017-01-10T03:31:16.661Z,5.6
2017-01-10T03:31:57.152Z,5.72
2017-01-10T03:32:37.704Z,5.64
2017-01-10T03:33:18.250Z,5.74
2017-01-10T03:33:58.787Z,5.76
2017-01-10T03:34:39.266Z,5.71
2017-01-10T03:35:19.851Z,5.74
2017-01-10T03:36:00.394Z,5.63
2017-01-10T03:36:41.026Z,5.71
2017-01-10T03:37:21.562Z,5.67
2017-01-10T03:38:02.019Z,5.71
2017-01-10T03:38:42.599Z,5.64
2017-01-10T03:39:23.132Z,5.83
2017-01-10T03:40:03.666Z,5.78
2017-01-10T03:40:44.221Z,5.72
2017-01-10T03:41:24.781Z,5.65
2017-01-10T03:42:05.292Z,5.64
2017-01-10T03:42:45.812Z,5.68
2017-01-10T03:43:26.367Z,5.68
2017-01-10T03:44:06.881Z,5.63
2017-01-10T03:44:47.445Z,5.6
2017-01-10T03:45:28.014Z,5.71
2017-01-10T03:46:08.515Z,5.82
2017-01-10T03:46:49.036Z,5.81
2017-01-10T03:47:29.611Z,5.71
2017-01-10T03:48:10.160Z,5.78
2017-01-10T03:48:50.708Z,5.74
2017-01-10T03:49:31.219Z,5.71
2017-01-10T03:50:11.794Z,5.75
2017-01-10T03:50:52.372Z,5.81
2017-01-10T03:51:32.944Z,5.81
2017-01-10T03:52:13.411Z,5.75
2017-01-10T03:52:53.967Z,5.78
2017-01-10T03:53:34.556Z,5.74
2017-01-10T03:54:15.182Z,5.67
2017-01-10T03:54:55.767Z,5.79
2017-01-10T03:55:36.236Z,5.81
2017-01-10T03:56:16.798Z,5.67
2017-01-10T03:56:57.281Z,5.71
2017-01-10T03:57:37.821Z,5.64
2017-01-10T03:58:18.365Z,5.76
2017-01-10T03:58:58.869Z,5.74
2017-01-10T03:59:39.440Z,5.58
2017-01-10T04:00:19.935Z,5.57
2017-01-10T04:01:01.623Z,5.65
2017-01-10T04:01:42.173Z,5.65
2017-01-10T04:02:22.687Z,5.61
2017-01-10T04:03:03.228Z,5.58
2017-01-10T04:03:43.706Z,5.63
2017-01-10T04:04:24.250Z,5.63
2017-01-10T04:05:04.793Z,5.61
2017-01-10T04:05:45.373Z,5.61
2017-01-10T04:06:25.942Z,5.57
2017-01-10T04:07:06.431Z,5.53
2017-01-10T04:07:46.939Z,5.45
2017-01-10T04:08:27.453Z,5.54
2017-01-10T04:09:08.043Z,5.54
2017-01-10T04:09:48.609Z,5.58
2017-01-10T04:10:29.203Z,5.54
2017-01-10T04:11:09.774Z,5.58
2017-01-10T04:11:50.304Z,5.61
2017-01-10T04:12:30.867Z,5.56
2017-01-10T04:13:11.359Z,5.6
2017-01-10T04:13:51.872Z,5.46
2017-01-10T04:14:32.454Z,5.51
2017-01-10T04:15:12.976Z,5.46
2017-01-10T04:15:53.519Z,5.53
2017-01-10T04:16:34.051Z,5.45
2017-01-10T04:17:14.592Z,5.54
2017-01-10T04:17:55.182Z,5.6
2017-01-10T04:18:35.724Z,5.57
2017-01-10T04:19:16.214Z,5.61
2017-01-10T04:19:56.774Z,5.54
2017-01-10T04:20:37.343Z,5.49
2017-01-10T04:21:17.860Z,5.63
2017-01-10T04:21:58.388Z,5.51
2017-01-10T04:22:38.953Z,5.58
2017-01-10T04:23:19.492Z,5.71
2017-01-10T04:24:00.052Z,5.64
2017-01-10T04:24:40.558Z,5.58
2017-01-10T04:25:21.304Z,5.6
2017-01-10T04:26:01.828Z,5.58
2017-01-10T04:26:42.392Z,5.61
2017-01-10T04:27:22.908Z,5.58
2017-01-10T04:28:03.436Z,5.61
2017-01-10T04:28:44.010Z,5.51
2017-01-10T04:29:24.537Z,5.57
2017-01-10T04:30:05.044Z,5.61
2017-01-10T04:30:45.597Z,5.67
2017-01-10T04:31:26.367Z,5.46
2017-01-10T04:32:06.785Z,5.51
2017-01-10T04:32:47.314Z,5.53
2017-01-10T04:33:27.921Z,5.53
2017-01-10T04:34:08.471Z,5.6
2017-01-10T04:34:48.980Z,5.58
2017-01-10T04:35:29.527Z,5.6
2017-01-10T04:36:10.066Z,5.67
2017-01-10T04:36:50.630Z,5.63
2017-01-10T04:37:31.145Z,5.49
2017-01-10T04:38:11.738Z,5.53
2017-01-10T04:38:52.306Z,5.57
2017-01-10T04:39:32.869Z,5.54
2017-01-10T04:40:13.364Z,5.46
2017-01-10T04:40:53.945Z,5.53
2017-01-10T04:41:34.465Z,5.51
2017-01-10T04:42:15.026Z,5.46
2017-01-10T04:42:55.539Z,5.4
2017-01-10T04:43:36.080Z,5.45
2017-01-10T04:44:16.632Z,5.48
2017-01-10T04:44:57.215Z,5.48
2017-01-10T04:45:37.743Z,5.51
2017-01-10T04:46:18.353Z,5.46
2017-01-10T04:46:58.834Z,5.57
2017-01-10T04:47:39.360Z,5.56
2017-01-10T04:48:19.912Z,5.56
2017-01-10T04:49:00.454Z,5.42
2017-01-10T04:49:40.962Z,5.53
2017-01-10T04:50:21.491Z,5.45
2017-01-10T04:51:02.060Z,5.51
2017-01-10T04:51:42.597Z,5.49
2017-01-10T04:52:23.155Z,5.51
2017-01-10T04:53:03.650Z,5.51
2017-01-10T04:53:44.180Z,5.46
2017-01-10T04:54:24.756Z,5.72
2017-01-10T04:55:05.306Z,5.56
2017-01-10T04:55:45.810Z,5.58
2017-01-10T04:56:26.342Z,5.63
2017-01-10T04:57:06.903Z,5.51
2017-01-10T04:57:47.481Z,5.51
2017-01-10T04:58:28.037Z,5.51
2017-01-10T04:59:08.740Z,5.48
2017-01-10T04:59:49.302Z,5.46
2017-01-10T05:00:29.883Z,5.53
2017-01-10T05:01:10.433Z,5.63
2017-01-10T05:01:51.003Z,5.53
2017-01-10T05:02:31.551Z,5.48
2017-01-10T05:03:12.065Z,5.39
2017-01-10T05:03:52.596Z,5.49
2017-01-10T05:04:33.143Z,5.43
2017-01-10T05:05:13.643Z,5.4
2017-01-10T05:05:54.176Z,5.4
2017-01-10T05:06:34.734Z,5.38
2017-01-10T05:07:15.292Z,5.3
2017-01-10T05:07:55.848Z,5.4
2017-01-10T05:08:36.370Z,5.49
2017-01-10T05:09:16.858Z,5.51
2017-01-10T05:09:57.386Z,5.39
2017-01-10T05:10:37.901Z,5.39
2017-01-10T05:11:18.532Z,5.39
2017-01-10T05:11:58.987Z,5.39
2017-01-10T05:12:39.564Z,5.42
2017-01-10T05:13:20.030Z,5.39
2017-01-10T05:14:00.562Z,5.4
2017-01-10T05:14:41.141Z,5.27
2017-01-10T05:15:21.640Z,5.39
2017-01-10T05:16:02.191Z,5.28
2017-01-10T05:16:42.743Z,5.39
2017-01-10T05:17:23.279Z,5.33
2017-01-10T05:18:03.816Z,5.25
2017-01-10T05:18:44.389Z,5.25
2017-01-10T05:19:24.924Z,5.38
2017-01-10T05:20:05.460Z,5.28
2017-01-10T05:20:46.004Z,5.33
2017-01-10T05:21:26.570Z,5.36
2017-01-10T05:22:07.114Z,5.38
2017-01-10T05:22:47.650Z,5.43
2017-01-10T05:23:28.184Z,5.39
2017-01-10T05:24:08.687Z,5.33
2017-01-10T05:24:49.207Z,5.27
2017-01-10T05:25:29.774Z,5.43
2017-01-10T05:26:10.314Z,5.33
2017-01-10T05:26:50.819Z,5.35
2017-01-10T05:27:31.347Z,5.35
2017-01-10T05:28:11.916Z,5.28
2017-01-10T05:28:52.419Z,5.27
2017-01-10T05:29:32.982Z,5.35
2017-01-10T05:30:13.534Z,5.33
2017-01-10T05:30:54.025Z,5.21
2017-01-10T05:31:34.592Z,5.21
2017-01-10T05:32:15.101Z,5.2
2017-01-10T05:32:55.654Z,5.31
2017-01-10T05:33:36.192Z,5.28
2017-01-10T05:34:16.739Z,5.3
2017-01-10T05:34:57.283Z,5.28
2017-01-10T05:35:37.815Z,5.4
2017-01-10T05:36:18.477Z,5.36
2017-01-10T05:36:58.971Z,5.35
2017-01-10T05:37:39.535Z,5.24
2017-01-10T05:38:20.000Z,5.3
2017-01-10T05:39:00.575Z,5.24
2017-01-10T05:39:41.063Z,5.22
2017-01-10T05:40:21.612Z,5.13
2017-01-10T05:41:02.152Z,5.35
2017-01-10T05:41:42.691Z,5.25
2017-01-10T05:42:23.226Z,5.3
2017-01-10T05:43:03.769Z,5.36
2017-01-10T05:43:44.238Z,5.18
2017-01-10T05:44:24.751Z,5.33
2017-01-10T05:45:05.332Z,5.27
2017-01-10T05:45:45.822Z,5.3
2017-01-10T05:46:26.354Z,5.35
2017-01-10T05:47:06.863Z,5.3
2017-01-10T05:47:47.434Z,5.33
2017-01-10T05:48:27.961Z,5.4
2017-01-10T05:49:08.489Z,5.33
2017-01-10T05:49:49.796Z,5.33
2017-01-10T05:50:30.337Z,5.27
2017-01-10T05:51:10.827Z,5.22
2017-01-10T05:51:51.366Z,5.04
2017-01-10T05:52:31.875Z,5.12
2017-01-10T05:53:12.390Z,5.13
2017-01-10T05:53:52.947Z,5.18
2017-01-10T05:54:33.434Z,5.07
2017-01-10T05:55:13.986Z,5.12
2017-01-10T05:55:54.533Z,5.2
2017-01-10T05:56:35.106Z,5.22
2017-01-10T05:57:15.630Z,5.17
2017-01-10T05:57:56.167Z,5.36
2017-01-10T05:58:36.685Z,5.33
2017-01-10T05:59:17.239Z,5.18
2017-01-10T05:59:57.793Z,5.24
2017-01-10T06:00:38.289Z,5.25
2017-01-10T06:01:18.827Z,5.25
2017-01-10T06:01:59.360Z,5.21
2017-01-10T06:02:39.900Z,5.24
2017-01-10T06:03:20.408Z,5.06
2017-01-10T06:04:00.934Z,5.17
2017-01-10T06:04:41.481Z,5.2
2017-01-10T06:05:22.033Z,5.3
2017-01-10T06:06:02.561Z,5.25
2017-01-10T06:06:43.113Z,5.21
2017-01-10T06:07:23.644Z,5.2
2017-01-10T06:08:04.163Z,5.24
2017-01-10T06:08:44.721Z,5.21
2017-01-10T06:09:25.288Z,5.22
2017-01-10T06:10:05.763Z,5.17
2017-01-10T06:10:46.294Z,5.22
2017-01-10T06:11:26.843Z,5.18
2017-01-10T06:12:07.401Z,5.17
2017-01-10T06:12:47.962Z,5.35
2017-01-10T06:13:28.488Z,5.27
2017-01-10T06:14:09.010Z,5.09
2017-01-10T06:14:49.593Z,5.1
2017-01-10T06:15:30.125Z,5.15
2017-01-10T06:16:10.683Z,5.09
2017-01-10T06:16:51.226Z,5.24
2017-01-10T06:17:31.751Z,5.18
2017-01-10T06:18:12.247Z,5.22
2017-01-10T06:18:52.818Z,5.27
2017-01-10T06:19:33.317Z,5.25
2017-01-10T06:20:13.901Z,5.12
2017-01-10T06:20:54.440Z,5.12
2017-01-10T06:21:34.988Z,5.21
2017-01-10T06:22:15.541Z,5.33
2017-01-10T06:22:56.091Z,5.06
2017-01-10T06:23:36.645Z,5.2
2017-01-10T06:24:17.189Z,5.17
2017-01-10T06:24:57.702Z,5.18
2017-01-10T06:25:38.231Z,5.22
2017-01-10T06:26:18.733Z,5.17
2017-01-10T06:26:59.265Z,5.24
2017-01-10T06:27:39.797Z,5.18
2017-01-10T06:28:20.343Z,5.18
2017-01-10T06:29:01.002Z,5.18
2017-01-10T06:29:41.538Z,5.2
2017-01-10T06:30:22.082Z,5.31
2017-01-10T06:31:02.620Z,5.35
2017-01-10T06:31:43.175Z,5.27
2017-01-10T06:32:23.758Z,5.35
2017-01-10T06:33:04.265Z,5.3
2017-01-10T06:33:44.810Z,5.42
2017-01-10T06:34:25.351Z,5.33
2017-01-10T06:35:05.921Z,5.35
2017-01-10T06:35:46.484Z,5.33
2017-01-10T06:36:27.020Z,5.31
2017-01-10T06:37:07.565Z,5.22
2017-01-10T06:37:48.119Z,5.25
2017-01-10T06:38:28.631Z,5.2
2017-01-10T06:39:09.191Z,5.3
2017-01-10T06:39:49.713Z,5.42
2017-01-10T06:40:30.376Z,5.33
2017-01-10T06:41:10.788Z,5.42
2017-01-10T06:41:51.321Z,5.27
2017-01-10T06:42:31.834Z,5.38
2017-01-10T06:43:12.394Z,5.33
2017-01-10T06:43:52.934Z,5.27
2017-01-10T06:44:33.463Z,5.4
2017-01-10T06:45:14.004Z,5.45
2017-01-10T06:45:54.524Z,5.48
2017-01-10T06:46:35.158Z,5.42
2017-01-10T06:47:15.684Z,5.35
2017-01-10T06:47:56.252Z,5.38
2017-01-10T06:48:36.758Z,5.39
2017-01-10T06:49:17.355Z,5.39
2017-01-10T06:49:57.891Z,5.22
2017-01-10T06:50:38.518Z,5.39
2017-01-10T06:51:19.112Z,5.42
2017-01-10T06:51:59.680Z,5.42
2017-01-10T06:52:40.155Z,5.39
2017-01-10T06:53:20.728Z,5.42
2017-01-10T06:54:01.278Z,5.38
2017-01-10T06:54:41.866Z,5.33
2017-01-10T06:55:22.404Z,5.45
2017-01-10T06:56:02.971Z,5.45
2017-01-10T06:56:43.490Z,5.49
2017-01-10T06:57:24.027Z,5.51
2017-01-10T06:58:04.568Z,5.49
2017-01-10T06:58:45.094Z,5.53
2017-01-10T06:59:25.644Z,5.53
2017-01-10T07:00:06.220Z,5.46
2017-01-10T07:00:46.752Z,5.61
2017-01-10T07:01:27.291Z,5.6
2017-01-10T07:02:07.883Z,5.54
2017-01-10T07:02:48.424Z,5.56
2017-01-10T07:03:29.025Z,5.57
2017-01-10T07:04:09.539Z,5.48
2017-01-10T07:04:50.073Z,5.53
2017-01-10T07:05:30.624Z,5.57
2017-01-10T07:06:11.171Z,5.48
2017-01-10T07:06:51.743Z,5.54
2017-01-10T07:07:32.275Z,5.63
2017-01-10T07:08:12.837Z,5.65
2017-01-10T07:08:53.376Z,5.68
2017-01-10T07:09:33.915Z,5.58
2017-01-10T07:10:14.481Z,5.57
2017-01-10T07:10:54.969Z,5.57
2017-01-10T07:11:35.506Z,5.61
2017-01-10T07:12:16.096Z,5.6
2017-01-10T07:12:56.583Z,5.71
2017-01-10T07:13:37.126Z,5.83
2017-01-10T07:14:17.674Z,5.89
2017-01-10T07:14:58.187Z,5.71
2017-01-10T07:15:38.751Z,5.83
2017-01-10T07:16:19.301Z,5.91
2017-01-10T07:16:59.835Z,5.97
2017-01-10T07:17:40.392Z,6.06
2017-01-10T07:18:20.944Z,6.03
2017-01-10T07:19:01.484Z,6.09
2017-01-10T07:19:42.004Z,6.28
2017-01-10T07:20:22.530Z,6.09
2017-01-10T07:21:03.087Z,6.15
2017-01-10T07:21:43.669Z,6.08
2017-01-10T07:22:24.210Z,6.04
2017-01-10T07:23:04.722Z,6.01
2017-01-10T07:23:45.264Z,5.89
2017-01-10T07:24:25.805Z,5.89
2017-01-10T07:25:06.380Z,5.85
2017-01-10T07:25:46.917Z,5.96
2017-01-10T07:26:27.467Z,5.85
2017-01-10T07:27:08.002Z,5.97
2017-01-10T07:27:48.548Z,5.97
2017-01-10T07:28:29.119Z,5.97
2017-01-10T07:29:09.635Z,6.03
2017-01-10T07:29:50.199Z,6.08
2017-01-10T07:30:30.711Z,5.99
2017-01-10T07:31:11.220Z,5.9
2017-01-10T07:31:51.791Z,5.82
2017-01-10T07:32:32.343Z,5.91
2017-01-10T07:33:12.893Z,5.94
2017-01-10T07:33:53.419Z,5.83
2017-01-10T07:34:33.999Z,5.97
2017-01-10T07:35:14.551Z,5.96
2017-01-10T07:35:55.029Z,5.91
2017-01-10T07:36:35.603Z,6.04
2017-01-10T07:37:16.120Z,6.04
2017-01-10T07:37:56.640Z,6.03
2017-01-10T07:38:37.164Z,5.91
2017-01-10T07:39:17.690Z,5.97
2017-01-10T07:39:58.229Z,5.99
2017-01-10T07:40:38.746Z,6.06
2017-01-10T07:41:19.298Z,5.94
2017-01-10T07:41:59.861Z,5.91
2017-01-10T07:42:40.431Z,5.94
2017-01-10T07:43:20.952Z,6
2017-01-10T07:44:01.465Z,5.9
2017-01-10T07:44:42.007Z,5.91
2017-01-10T07:45:22.554Z,5.81
2017-01-10T07:47:35.821Z,5.99
2017-01-10T07:48:16.625Z,5.9
2017-01-10T07:48:57.353Z,5.97
2017-01-10T07:49:37.679Z,5.99
2017-01-10T07:50:18.192Z,6.12
2017-01-10T07:50:58.733Z,5.9
2017-01-10T07:51:39.299Z,5.91
2017-01-10T07:52:19.773Z,6.04
2017-01-10T07:53:00.308Z,5.86
2017-01-10T07:53:40.873Z,5.85
2017-01-10T07:54:21.419Z,5.86
2017-01-10T07:55:02.094Z,5.99
2017-01-10T07:55:42.626Z,6.06
2017-01-10T07:56:23.191Z,6.06
2017-01-10T07:57:03.689Z,6
2017-01-10T07:57:44.205Z,5.93
2017-01-10T07:58:24.727Z,5.81
2017-01-10T07:59:05.250Z,5.96
2017-01-10T07:59:45.846Z,5.93
2017-01-10T08:00:26.383Z,6.11
2017-01-10T08:01:06.900Z,6.11
2017-01-10T08:01:47.402Z,6.09
2017-01-10T08:02:28.032Z,6.17
2017-01-10T08:03:08.556Z,5.79
2017-01-10T08:03:49.090Z,5.99
2017-01-10T08:04:29.703Z,6.01
2017-01-10T08:05:10.176Z,6.17
2017-01-10T08:05:50.723Z,5.91
2017-01-10T08:06:31.304Z,6.01
2017-01-10T08:07:11.810Z,6.14
2017-01-10T08:07:52.378Z,6.19
2017-01-10T08:08:32.911Z,6.28
2017-01-10T08:09:13.445Z,6.09
2017-01-10T08:09:53.939Z,6.03
2017-01-10T08:10:34.537Z,6.03
2017-01-10T08:11:15.041Z,6.06
2017-01-10T08:11:55.550Z,6.11
2017-01-10T08:12:36.120Z,6.12
2017-01-10T08:13:16.647Z,6.37
2017-01-10T08:13:57.147Z,6.41
2017-01-10T08:14:37.686Z,6.41
2017-01-10T08:15:18.266Z,6.51
2017-01-10T08:15:58.772Z,6.44
2017-01-10T08:16:39.301Z,6.43
2017-01-10T08:17:19.841Z,6.18
2017-01-10T08:18:00.385Z,6.06
2017-01-10T08:18:40.889Z,6.22
2017-01-10T08:19:21.441Z,6.11
2017-01-10T08:20:02.101Z,6.22
2017-01-10T08:20:42.566Z,6.12
2017-01-10T08:21:23.086Z,6.15
2017-01-10T08:22:03.575Z,6.17
2017-01-10T08:22:44.116Z,6.15
2017-01-10T08:23:24.645Z,6.25
2017-01-10T08:24:05.198Z,6.33
2017-01-10T08:24:45.728Z,6.12
2017-01-10T08:25:26.299Z,6.18
2017-01-10T08:26:06.810Z,6.18
2017-01-10T08:26:47.370Z,6.25
2017-01-10T08:27:27.882Z,6.31
2017-01-10T08:28:08.381Z,6.22
2017-01-10T08:28:48.911Z,6.18
2017-01-10T08:29:29.450Z,6.11
2017-01-10T08:30:10.010Z,6.31
2017-01-10T08:30:50.511Z,6.33
2017-01-10T08:31:31.063Z,6.34
2017-01-10T08:32:11.572Z,6.33
2017-01-10T08:32:52.111Z,6.4
2017-01-10T08:33:32.669Z,6.44
2017-01-10T08:34:13.200Z,6.3
2017-01-10T08:34:53.702Z,6.14
2017-01-10T08:35:34.205Z,6.3
2017-01-10T08:36:14.744Z,6.3
2017-01-10T08:36:55.281Z,6.21
2017-01-10T08:37:35.825Z,6.33
2017-01-10T08:38:16.366Z,6.41
2017-01-10T08:38:56.974Z,6.34
2017-01-10T08:39:37.473Z,6.44
2017-01-10T08:40:18.011Z,6.49
2017-01-10T08:40:58.678Z,6.52
2017-01-10T08:41:39.331Z,6.48
2017-01-10T08:42:19.899Z,6.49
2017-01-10T08:43:00.332Z,6.46
2017-01-10T08:43:40.886Z,6.49
2017-01-10T08:44:21.427Z,6.44
2017-01-10T08:45:02.002Z,6.44
2017-01-10T08:45:42.558Z,6.38
2017-01-10T08:46:23.037Z,6.3
2017-01-10T08:47:03.542Z,6.38
2017-01-10T08:47:44.153Z,6.41
2017-01-10T08:48:24.591Z,6.41
2017-01-10T08:49:05.193Z,6.52
2017-01-10T08:49:45.687Z,6.7
2017-01-10T08:50:26.238Z,6.66
2017-01-10T08:51:06.743Z,6.77
2017-01-10T08:51:47.260Z,6.62
2017-01-10T08:52:27.839Z,6.44
2017-01-10T08:53:08.333Z,6.48
2017-01-10T08:53:48.878Z,6.67
2017-01-10T08:54:29.415Z,6.74
2017-01-10T08:55:09.946Z,6.59
2017-01-10T08:55:50.487Z,6.69
2017-01-10T08:56:31.047Z,6.67
2017-01-10T08:57:11.795Z,6.69
2017-01-10T08:57:52.310Z,6.49
2017-01-10T08:58:32.972Z,6.59
2017-01-10T08:59:13.543Z,6.58
2017-01-10T08:59:54.505Z,6.71
2017-01-10T09:00:34.757Z,6.64
2017-01-10T09:01:15.220Z,6.67
2017-01-10T09:01:55.758Z,6.59
2017-01-10T09:02:36.288Z,6.67